Flinterborg — PHPH — position and weather

sailwx.info

Track history (hours):
 
Tides and Currents Weather Stations Pressure Air Temp Water Temp Dewpoint Dewpoint Depression Visibility Wind Speed Wind Dir Waves Ship Positions

Flinterborg

Last reported at 2016-Apr-28 00:33 UTC. Time now 2016-Apr-30 18:50 UTC.
Position N 36°01' W 005°15'.

Length 111 m; draft 6.3 m.

Type: Ship. MMSI: 245433000.

Date/timePositionNaut miles runAvg speedWind from/ knotsBaromVisibWave heightAir tempDewpointWater temp
2016-Apr-28 00:33N 36°01' W 005°15'1313.3
2016-Apr-27 23:33N 35°57' W 005°30'17011.2
2016-Apr-27 08:27N 36°30' W 008°57'3310.4
2016-Apr-27 05:18N 36°47' W 009°32'1110.2
2016-Apr-27 04:15N 36°58' W 009°35'710.1
2016-Apr-27 03:30N 37°05' W 009°37'1010.2
2016-Apr-27 02:33N 37°14' W 009°40'1010.0
2016-Apr-27 01:33N 37°24' W 009°43'11 9.9
2016-Apr-27 00:25N 37°35' W 009°47'910.0
2016-Apr-26 23:33N 37°43' W 009°49'1110.1
2016-Apr-26 22:28N 37°54' W 009°52'1010.3
2016-Apr-26 21:32N 38°03' W 009°55'1010.5
2016-Apr-26 20:33N 38°14' W 009°58'1110.8
2016-Apr-26 19:33N 38°24' W 010°01'1110.8
2016-Apr-26 18:33N 38°35' W 010°04'1110.8
2016-Apr-26 17:33N 38°45' W 010°06'1410.8
2016-Apr-26 16:17N 38°59' W 010°07'810.7
2016-Apr-26 15:33N 39°07' W 010°07'2510.9
2016-Apr-26 13:16N 39°32' W 010°07'3111.0
2016-Apr-26 10:29N 40°02' W 010°06'  
2016-Apr-23 20:33N 49°45' W 003°29'9 9.4
2016-Apr-23 19:34N 49°50' W 003°16'10 9.4
2016-Apr-23 18:32N 49°55' W 003°03'1110.1
2016-Apr-23 17:30N 49°59' W 002°48'9411.8
2016-Apr-23 09:29N 50°24' W 000°27'8 8.4
2016-Apr-23 08:34N 50°26' W 000°15'9 9.4
2016-Apr-23 07:33N 50°29' W 000°00'1110.8
2016-Apr-23 06:30N 50°32' E 000°17'4611.6
2016-Apr-23 02:32N 50°56' E 001°19'9 9.6
2016-Apr-23 01:33N 51°02' E 001°29'7 7.0
2016-Apr-23 00:33N 51°01' E 001°40'8 5.6
2016-Apr-22 23:10N 50°58' E 001°52'0 0.0
2016-Apr-22 22:25N 50°58' E 001°52'0 0.0
2016-Apr-22 21:18N 50°58' E 001°52'0 0.0
2016-Apr-22 19:33N 50°58' E 001°52'0 0.0
2016-Apr-22 18:29N 50°58' E 001°52'0 0.0
2016-Apr-22 17:26N 50°58' E 001°52'0 0.0
2016-Apr-22 16:28N 50°58' E 001°52'0 0.0
2016-Apr-22 15:13N 50°58' E 001°52'0 0.0
2016-Apr-22 14:34N 50°58' E 001°52'0 0.0
2016-Apr-22 13:33N 50°58' E 001°52'0 0.0
2016-Apr-22 12:08N 50°58' E 001°52'0 0.0
2016-Apr-22 11:20N 50°58' E 001°52'0 0.0
2016-Apr-22 10:29N 50°58' E 001°52'0 0.0
2016-Apr-22 09:25N 50°58' E 001°52'0 0.0
2016-Apr-22 08:25N 50°58' E 001°52'0 0.0
2016-Apr-22 07:30N 50°58' E 001°52'0 0.0
2016-Apr-22 06:33N 50°58' E 001°52'0 0.0
2016-Apr-22 05:33N 50°58' E 001°52'0 0.0
2016-Apr-22 04:29N 50°58' E 001°52'0 0.0
2016-Apr-22 03:32N 50°58' E 001°52'0 0.0
2016-Apr-22 02:25N 50°58' E 001°52'0 0.0
2016-Apr-22 01:28N 50°58' E 001°52'0 0.0
2016-Apr-22 00:33N 50°58' E 001°52'0 0.0
2016-Apr-21 23:33N 50°58' E 001°52'0 0.0
2016-Apr-21 22:33N 50°58' E 001°52'0 0.0
2016-Apr-21 21:17N 50°58' E 001°52'0 0.0
2016-Apr-21 20:26N 50°58' E 001°52'0 0.0
2016-Apr-21 19:31N 50°58' E 001°52'0 0.0
2016-Apr-21 17:30N 50°58' E 001°52'0 0.0
2016-Apr-21 16:33N 50°58' E 001°52'0 0.0
2016-Apr-21 15:30N 50°58' E 001°52'0 0.0
2016-Apr-21 14:32N 50°58' E 001°52'0 0.0
2016-Apr-21 13:32N 50°58' E 001°52'0 0.0
2016-Apr-21 12:31N 50°58' E 001°52'0 0.0
2016-Apr-21 11:31N 50°58' E 001°52'0 0.0
2016-Apr-21 10:33N 50°58' E 001°52'3 2.9
2016-Apr-21 09:28N 50°59' E 001°47'2 2.2
2016-Apr-21 08:33N 50°60' E 001°45'9 9.3
2016-Apr-21 07:33N 51°09' E 001°41'1515.2
2016-Apr-21 06:33N 51°21' E 001°54'1413.7
2016-Apr-21 05:34N 51°32' E 002°07'1312.8
2016-Apr-21 04:33N 51°42' E 002°21'1311.9
2016-Apr-21 03:30N 51°51' E 002°35'1311.3
2016-Apr-21 02:22N 52°00' E 002°49'2311.6
2016-Apr-21 00:25N 52°03' E 003°26'1113.1
2016-Apr-20 23:33N 52°02' E 003°44'1313.1
2016-Apr-20 22:33N 51°59' E 004°05'1312.7
2016-Apr-20 21:34N 51°54' E 004°24'0 0.2
2016-Apr-20 20:32N 51°54' E 004°24'0 0.0
2016-Apr-20 19:32N 51°54' E 004°24'0 0.0
2016-Apr-20 18:29N 51°54' E 004°24'0 0.0
2016-Apr-20 17:31N 51°54' E 004°24'0 0.0
2016-Apr-20 16:31N 51°54' E 004°24'0 0.0
2016-Apr-20 15:33N 51°54' E 004°24'0 0.0
2016-Apr-20 14:33N 51°54' E 004°24'0 0.0
2016-Apr-20 13:32N 51°54' E 004°24'0 0.0
2016-Apr-20 12:32N 51°54' E 004°24'0 0.0
2016-Apr-20 11:26N 51°54' E 004°24'0 0.0
2016-Apr-20 10:31N 51°54' E 004°24'0 0.0
2016-Apr-20 09:28N 51°54' E 004°24'0 0.0
2016-Apr-20 08:31N 51°54' E 004°24'0 0.0
2016-Apr-20 07:33N 51°54' E 004°24'0 0.0
2016-Apr-20 06:33N 51°54' E 004°24'0 0.0
2016-Apr-20 05:32N 51°54' E 004°24'0 0.0
2016-Apr-20 04:32N 51°54' E 004°24'0 0.0
2016-Apr-20 03:32N 51°54' E 004°24'0 0.0
2016-Apr-20 02:28N 51°54' E 004°24'0 0.0
2016-Apr-20 01:31N 51°54' E 004°24'0 0.0
2016-Apr-20 00:33N 51°54' E 004°24'0 0.0
2016-Apr-19 23:33N 51°54' E 004°24'0 0.0
2016-Apr-19 22:32N 51°54' E 004°24'0 0.0
2016-Apr-19 21:32N 51°54' E 004°24'0 0.0
2016-Apr-19 20:34N 51°54' E 004°24'6 6.1
2016-Apr-19 19:34N 51°55' E 004°14'8 8.4
2016-Apr-19 18:34N 51°59' E 004°02'10 9.5
2016-Apr-19 17:34N 51°60' E 003°47'5611.1
2016-Apr-19 12:32N 51°36' E 002°25'1212.6
2016-Apr-19 11:34N 51°26' E 002°13'1211.7
2016-Apr-19 10:33N 51°16' E 002°05'1312.6
2016-Apr-19 09:33N 51°08' E 001°48'1412.3
2016-Apr-19 08:25N 50°58' E 001°33'5210.0
2016-Apr-19 03:12N 50°26' E 000°28'710.1
2016-Apr-19 02:31N 50°24' E 000°17'9 9.9
2016-Apr-19 01:33N 50°22' E 000°03'10 9.8
2016-Apr-19 00:30N 50°21' W 000°13'9 9.7
2016-Apr-18 23:33N 50°23' W 000°28'10 9.8
2016-Apr-18 22:33N 50°24' W 000°43'1010.4
2016-Apr-18 21:33N 50°25' W 000°59'2811.5
2016-Apr-18 19:05N 50°29' W 001°43'712.3
2016-Apr-18 18:33N 50°30' W 001°53'1412.6
2016-Apr-18 17:26N 50°34' W 002°15'  
Track history (hours):
 
Tides and Currents Weather Stations Pressure Air Temp Water Temp Dewpoint Dewpoint Depression Visibility Wind Speed Wind Dir Waves Ship Positions

Flinterborg

Last reported at 2016-Apr-28 00:33 UTC. Time now 2016-Apr-30 18:50 UTC.
Position N 36°01' W 005°15'.

Length 111 m; draft 6.3 m.

Type: Ship. MMSI: 245433000.

Date/timePositionNaut miles runAvg speedWind from/ knotsBaromVisibWave heightAir tempDewpointWater temp
2016-Apr-28 00:33N 36°01' W 005°15'1313.3
2016-Apr-27 23:33N 35°57' W 005°30'17011.2
2016-Apr-27 08:27N 36°30' W 008°57'3310.4
2016-Apr-27 05:18N 36°47' W 009°32'1110.2
2016-Apr-27 04:15N 36°58' W 009°35'710.1
2016-Apr-27 03:30N 37°05' W 009°37'1010.2
2016-Apr-27 02:33N 37°14' W 009°40'1010.0
2016-Apr-27 01:33N 37°24' W 009°43'11 9.9
2016-Apr-27 00:25N 37°35' W 009°47'910.0
2016-Apr-26 23:33N 37°43' W 009°49'1110.1
2016-Apr-26 22:28N 37°54' W 009°52'1010.3
2016-Apr-26 21:32N 38°03' W 009°55'1010.5
2016-Apr-26 20:33N 38°14' W 009°58'1110.8
2016-Apr-26 19:33N 38°24' W 010°01'1110.8
2016-Apr-26 18:33N 38°35' W 010°04'1110.8
2016-Apr-26 17:33N 38°45' W 010°06'1410.8
2016-Apr-26 16:17N 38°59' W 010°07'810.7
2016-Apr-26 15:33N 39°07' W 010°07'2510.9
2016-Apr-26 13:16N 39°32' W 010°07'3111.0
2016-Apr-26 10:29N 40°02' W 010°06'  
2016-Apr-23 20:33N 49°45' W 003°29'9 9.4
2016-Apr-23 19:34N 49°50' W 003°16'10 9.4
2016-Apr-23 18:32N 49°55' W 003°03'1110.1
2016-Apr-23 17:30N 49°59' W 002°48'9411.8
2016-Apr-23 09:29N 50°24' W 000°27'8 8.4
2016-Apr-23 08:34N 50°26' W 000°15'9 9.4
2016-Apr-23 07:33N 50°29' W 000°00'1110.8
2016-Apr-23 06:30N 50°32' E 000°17'4611.6
2016-Apr-23 02:32N 50°56' E 001°19'9 9.6
2016-Apr-23 01:33N 51°02' E 001°29'7 7.0
2016-Apr-23 00:33N 51°01' E 001°40'8 5.6
2016-Apr-22 23:10N 50°58' E 001°52'0 0.0
2016-Apr-22 22:25N 50°58' E 001°52'0 0.0
2016-Apr-22 21:18N 50°58' E 001°52'0 0.0
2016-Apr-22 19:33N 50°58' E 001°52'0 0.0
2016-Apr-22 18:29N 50°58' E 001°52'0 0.0
2016-Apr-22 17:26N 50°58' E 001°52'0 0.0
2016-Apr-22 16:28N 50°58' E 001°52'0 0.0
2016-Apr-22 15:13N 50°58' E 001°52'0 0.0
2016-Apr-22 14:34N 50°58' E 001°52'0 0.0
2016-Apr-22 13:33N 50°58' E 001°52'0 0.0
2016-Apr-22 12:08N 50°58' E 001°52'0 0.0
2016-Apr-22 11:20N 50°58' E 001°52'0 0.0
2016-Apr-22 10:29N 50°58' E 001°52'0 0.0
2016-Apr-22 09:25N 50°58' E 001°52'0 0.0
2016-Apr-22 08:25N 50°58' E 001°52'0 0.0
2016-Apr-22 07:30N 50°58' E 001°52'0 0.0
2016-Apr-22 06:33N 50°58' E 001°52'0 0.0
2016-Apr-22 05:33N 50°58' E 001°52'0 0.0
2016-Apr-22 04:29N 50°58' E 001°52'0 0.0
2016-Apr-22 03:32N 50°58' E 001°52'0 0.0
2016-Apr-22 02:25N 50°58' E 001°52'0 0.0
2016-Apr-22 01:28N 50°58' E 001°52'0 0.0
2016-Apr-22 00:33N 50°58' E 001°52'0 0.0
2016-Apr-21 23:33N 50°58' E 001°52'0 0.0
2016-Apr-21 22:33N 50°58' E 001°52'0 0.0
2016-Apr-21 21:17N 50°58' E 001°52'0 0.0
2016-Apr-21 20:26N 50°58' E 001°52'0 0.0
2016-Apr-21 19:31N 50°58' E 001°52'0 0.0
2016-Apr-21 17:30N 50°58' E 001°52'0 0.0
2016-Apr-21 16:33N 50°58' E 001°52'0 0.0
2016-Apr-21 15:30N 50°58' E 001°52'0 0.0
2016-Apr-21 14:32N 50°58' E 001°52'0 0.0
2016-Apr-21 13:32N 50°58' E 001°52'0 0.0
2016-Apr-21 12:31N 50°58' E 001°52'0 0.0
2016-Apr-21 11:31N 50°58' E 001°52'0 0.0
2016-Apr-21 10:33N 50°58' E 001°52'3 2.9
2016-Apr-21 09:28N 50°59' E 001°47'2 2.2
2016-Apr-21 08:33N 50°60' E 001°45'9 9.3
2016-Apr-21 07:33N 51°09' E 001°41'1515.2
2016-Apr-21 06:33N 51°21' E 001°54'1413.7
2016-Apr-21 05:34N 51°32' E 002°07'1312.8
2016-Apr-21 04:33N 51°42' E 002°21'1311.9
2016-Apr-21 03:30N 51°51' E 002°35'1311.3
2016-Apr-21 02:22N 52°00' E 002°49'2311.6
2016-Apr-21 00:25N 52°03' E 003°26'1113.1
2016-Apr-20 23:33N 52°02' E 003°44'1313.1
2016-Apr-20 22:33N 51°59' E 004°05'1312.7
2016-Apr-20 21:34N 51°54' E 004°24'0 0.2
2016-Apr-20 20:32N 51°54' E 004°24'0 0.0
2016-Apr-20 19:32N 51°54' E 004°24'0 0.0
2016-Apr-20 18:29N 51°54' E 004°24'0 0.0
2016-Apr-20 17:31N 51°54' E 004°24'0 0.0
2016-Apr-20 16:31N 51°54' E 004°24'0 0.0
2016-Apr-20 15:33N 51°54' E 004°24'0 0.0
2016-Apr-20 14:33N 51°54' E 004°24'0 0.0
2016-Apr-20 13:32N 51°54' E 004°24'0 0.0
2016-Apr-20 12:32N 51°54' E 004°24'0 0.0
2016-Apr-20 11:26N 51°54' E 004°24'0 0.0
2016-Apr-20 10:31N 51°54' E 004°24'0 0.0
2016-Apr-20 09:28N 51°54' E 004°24'0 0.0
2016-Apr-20 08:31N 51°54' E 004°24'0 0.0
2016-Apr-20 07:33N 51°54' E 004°24'0 0.0
2016-Apr-20 06:33N 51°54' E 004°24'0 0.0
2016-Apr-20 05:32N 51°54' E 004°24'0 0.0
2016-Apr-20 04:32N 51°54' E 004°24'0 0.0
2016-Apr-20 03:32N 51°54' E 004°24'0 0.0
2016-Apr-20 02:28N 51°54' E 004°24'0 0.0
2016-Apr-20 01:31N 51°54' E 004°24'0 0.0
2016-Apr-20 00:33N 51°54' E 004°24'0 0.0
2016-Apr-19 23:33N 51°54' E 004°24'0 0.0
2016-Apr-19 22:32N 51°54' E 004°24'0 0.0
2016-Apr-19 21:32N 51°54' E 004°24'0 0.0
2016-Apr-19 20:34N 51°54' E 004°24'6 6.1
2016-Apr-19 19:34N 51°55' E 004°14'8 8.4
2016-Apr-19 18:34N 51°59' E 004°02'10 9.5
2016-Apr-19 17:34N 51°60' E 003°47'5611.1
2016-Apr-19 12:32N 51°36' E 002°25'1212.6
2016-Apr-19 11:34N 51°26' E 002°13'1211.7
2016-Apr-19 10:33N 51°16' E 002°05'1312.6
2016-Apr-19 09:33N 51°08' E 001°48'1412.3
2016-Apr-19 08:25N 50°58' E 001°33'5210.0
2016-Apr-19 03:12N 50°26' E 000°28'710.1
2016-Apr-19 02:31N 50°24' E 000°17'9 9.9
2016-Apr-19 01:33N 50°22' E 000°03'10 9.8
2016-Apr-19 00:30N 50°21' W 000°13'9 9.7
2016-Apr-18 23:33N 50°23' W 000°28'10 9.8
2016-Apr-18 22:33N 50°24' W 000°43'1010.4
2016-Apr-18 21:33N 50°25' W 000°59'2811.5
2016-Apr-18 19:05N 50°29' W 001°43'712.3
2016-Apr-18 18:33N 50°30' W 001°53'1412.6
2016-Apr-18 17:26N 50°34' W 002°15'  

Dump ship's entire track history